RJOO/ITM METAR and TAF weather

Enter ICAO airport designator
Station Type Date Time Source
RJOO METAR 2019/02/23 22:00 UTC NOAA

RJOO 232200Z 29002KT CAVOK 02/M01 Q1024


Station Type Date Time Source
RJOO Decoded METAR 2019/02/23 22:00 UTC NOAA

Osaka International Airport, Japan (RJOO) 34-47N 135-27E 15M
Feb 23, 2019 - 05:00 PM EST / 2019.02.23 2200 UTC
Wind: from the WNW (290 degrees) at 2 MPH (2 KT):0
Visibility: greater than 7 mile(s):0
Temperature: 35 F (2 C)
Dew Point: 30 F (-1 C)
Relative Humidity: 80%
Pressure (altimeter): 30.24 in. Hg (1024 hPa)
ob: RJOO 232200Z 29002KT CAVOK 02/M01 Q1024
cycle: 22

Station Type Date Time Source
RJOO TAF 2019/02/23 18:29 UTC NOAA

TAF RJOO 231707Z 2318/2500 32005KT 9999 FEW030
BECMG 2323/2401 10004KT
BECMG 2409/2412 32005KT


Example: see airport list